Terminal Aerodrome Forecast
Issued by NWS

Home | Current Version | Previous Version | Text Only | Print | Product List | Glossary On
Versions: 1 2 3 4 5 6 7 8 9 10 11 12 13 14 15 16 17 18 19 20 21 22 23 24 25 26 27 28 29 30 31 32 33 34 35 36
228
FTAK31 PAFA 152123 AAB
TAFAUN
TAF AMD
PAUN 152123Z 1521/1618 07025KT P6SM BKN020
     FM160300 08026G32KT 5SM -SN BR SCT050 BKN100
     FM160400 08025G33KT 2SM -SN BR BLSN BKN025 OVC050=

USA.gov is the U.S. government's official web portal to all federal, state and local government web resources and services.